sensor_id;sensor_type;location;lat;lon;timestamp;temperature;humidity
66873;HTU21D;53781;51.090;5.884;2022-09-23T00:00:13;12.67;71.51
66873;HTU21D;53781;51.090;5.884;2022-09-23T00:00:28;12.69;71.46
66873;HTU21D;53781;51.090;5.884;2022-09-23T00:00:44;12.70;71.43
66873;HTU21D;53781;51.090;5.884;2022-09-23T00:01:01;12.70;71.44
66873;HTU21D;53781;51.090;5.884;2022-09-23T00:01:16;12.71;71.42
66873;HTU21D;53781;51.090;5.884;2022-09-23T00:01:32;12.70;71.46
66873;HTU21D;53781;51.090;5.884;2022-09-23T00:01:47;12.71;71.36
66873;HTU21D;53781;51.090;5.884;2022-09-23T00:02:02;12.71;71.37
66873;HTU21D;53781;51.090;5.884;2022-09-23T00:02:17;12.72;71.36
66873;HTU21D;53781;51.090;5.884;2022-09-23T00:02:31;12.72;71.31
66873;HTU21D;53781;51.090;5.884;2022-09-23T00:02:46;12.72;71.36
66873;HTU21D;53781;51.090;5.884;2022-09-23T00:03:02;12.72;71.38
66873;HTU21D;53781;51.090;5.884;2022-09-23T00:03:17;12.73;71.35
66873;HTU21D;53781;51.090;5.884;2022-09-23T00:03:37;12.74;71.31
66873;HTU21D;53781;51.090;5.884;2022-09-23T00:03:52;12.73;71.36
66873;HTU21D;53781;51.090;5.884;2022-09-23T00:04:07;12.73;71.35
66873;HTU21D;53781;51.090;5.884;2022-09-23T00:04:22;12.74;71.33
66873;HTU21D;53781;51.090;5.884;2022-09-23T00:04:36;12.75;71.28
66873;HTU21D;53781;51.090;5.884;2022-09-23T00:04:51;12.75;71.29
66873;HTU21D;53781;51.090;5.884;2022-09-23T00:05:06;12.75;71.26
66873;HTU21D;53781;51.090;5.884;2022-09-23T00:05:21;12.77;71.24
66873;HTU21D;53781;51.090;5.884;2022-09-23T00:05:36;12.77;71.27
66873;HTU21D;53781;51.090;5.884;2022-09-23T00:06:03;12.78;71.20
66873;HTU21D;53781;51.090;5.884;2022-09-23T00:06:20;12.77;71.16
66873;HTU21D;53781;51.090;5.884;2022-09-23T00:06:35;12.78;71.13
66873;HTU21D;53781;51.090;5.884;2022-09-23T00:06:50;12.77;71.05
66873;HTU21D;53781;51.090;5.884;2022-09-23T00:07:05;12.78;71.04
66873;HTU21D;53781;51.090;5.884;2022-09-23T00:07:20;12.79;71.03
66873;HTU21D;53781;51.090;5.884;2022-09-23T00:07:35;12.78;71.03
66873;HTU21D;53781;51.090;5.884;2022-09-23T00:07:49;12.79;71.03
66873;HTU21D;53781;51.090;5.884;2022-09-23T00:08:06;12.80;71.05
66873;HTU21D;53781;51.090;5.884;2022-09-23T00:08:21;12.81;70.97
66873;HTU21D;53781;51.090;5.884;2022-09-23T00:08:38;12.80;70.95
66873;HTU21D;53781;51.090;5.884;2022-09-23T00:08:53;12.79;70.99
66873;HTU21D;53781;51.090;5.884;2022-09-23T00:09:08;12.81;70.94
66873;HTU21D;53781;51.090;5.884;2022-09-23T00:09:23;12.82;70.93
66873;HTU21D;53781;51.090;5.884;2022-09-23T00:09:37;12.82;70.95
66873;HTU21D;53781;51.090;5.884;2022-09-23T00:09:52;12.82;70.93
66873;HTU21D;53781;51.090;5.884;2022-09-23T00:10:09;12.81;70.96
66873;HTU21D;53781;51.090;5.884;2022-09-23T00:10:27;12.82;70.87
66873;HTU21D;53781;51.090;5.884;2022-09-23T00:10:44;12.82;70.87
66873;HTU21D;53781;51.090;5.884;2022-09-23T00:11:11;12.84;70.84
66873;HTU21D;53781;51.090;5.884;2022-09-23T00:11:27;12.84;70.74
66873;HTU21D;53781;51.090;5.884;2022-09-23T00:11:41;12.82;70.75
66873;HTU21D;53781;51.090;5.884;2022-09-23T00:11:56;12.84;70.71
66873;HTU21D;53781;51.090;5.884;2022-09-23T00:12:11;12.85;70.75
66873;HTU21D;53781;51.090;5.884;2022-09-23T00:12:26;12.82;70.76
66873;HTU21D;53781;51.090;5.884;2022-09-23T00:12:41;12.82;70.71
66873;HTU21D;53781;51.090;5.884;2022-09-23T00:12:57;12.86;70.63
66873;HTU21D;53781;51.090;5.884;2022-09-23T00:13:12;12.85;70.66
66873;HTU21D;53781;51.090;5.884;2022-09-23T00:13:27;12.84;70.57
66873;HTU21D;53781;51.090;5.884;2022-09-23T00:13:43;12.85;70.58
66873;HTU21D;53781;51.090;5.884;2022-09-23T00:13:58;12.85;70.45
66873;HTU21D;53781;51.090;5.884;2022-09-23T00:14:13;12.86;70.50
66873;HTU21D;53781;51.090;5.884;2022-09-23T00:14:28;12.85;70.44
66873;HTU21D;53781;51.090;5.884;2022-09-23T00:14:43;12.86;70.46
66873;HTU21D;53781;51.090;5.884;2022-09-23T00:14:58;12.85;70.43
66873;HTU21D;53781;51.090;5.884;2022-09-23T00:15:13;12.86;70.35
66873;HTU21D;53781;51.090;5.884;2022-09-23T00:15:27;12.87;70.29
66873;HTU21D;53781;51.090;5.884;2022-09-23T00:15:44;12.85;70.21
66873;HTU21D;53781;51.090;5.884;2022-09-23T00:16:05;12.85;70.22
66873;HTU21D;53781;51.090;5.884;2022-09-23T00:16:26;12.87;70.13
66873;HTU21D;53781;51.090;5.884;2022-09-23T00:16:41;12.87;70.10
66873;HTU21D;53781;51.090;5.884;2022-09-23T00:16:56;12.86;70.10
66873;HTU21D;53781;51.090;5.884;2022-09-23T00:17:11;12.87;70.01
66873;HTU21D;53781;51.090;5.884;2022-09-23T00:17:25;12.85;70.01
66873;HTU21D;53781;51.090;5.884;2022-09-23T00:17:40;12.85;70.00
66873;HTU21D;53781;51.090;5.884;2022-09-23T00:17:56;12.85;70.04
66873;HTU21D;53781;51.090;5.884;2022-09-23T00:18:11;12.85;70.01
66873;HTU21D;53781;51.090;5.884;2022-09-23T00:18:26;12.85;69.98
66873;HTU21D;53781;51.090;5.884;2022-09-23T00:18:41;12.85;69.97
66873;HTU21D;53781;51.090;5.884;2022-09-23T00:18:56;12.85;69.89
66873;HTU21D;53781;51.090;5.884;2022-09-23T00:19:11;12.84;69.95
66873;HTU21D;53781;51.090;5.884;2022-09-23T00:19:26;12.84;69.89
66873;HTU21D;53781;51.090;5.884;2022-09-23T00:19:41;12.85;69.90
66873;HTU21D;53781;51.090;5.884;2022-09-23T00:19:55;12.82;69.90
66873;HTU21D;53781;51.090;5.884;2022-09-23T00:20:10;12.84;69.88
66873;HTU21D;53781;51.090;5.884;2022-09-23T00:20:25;12.82;69.85
66873;HTU21D;53781;51.090;5.884;2022-09-23T00:20:41;12.85;69.94
66873;HTU21D;53781;51.090;5.884;2022-09-23T00:20:56;12.82;69.92
66873;HTU21D;53781;51.090;5.884;2022-09-23T00:21:13;12.85;69.93
66873;HTU21D;53781;51.090;5.884;2022-09-23T00:21:28;12.82;69.95
66873;HTU21D;53781;51.090;5.884;2022-09-23T00:21:43;12.82;69.98
66873;HTU21D;53781;51.090;5.884;2022-09-23T00:21:57;12.85;69.95
66873;HTU21D;53781;51.090;5.884;2022-09-23T00:22:12;12.84;69.96
66873;HTU21D;53781;51.090;5.884;2022-09-23T00:22:27;12.86;69.91
66873;HTU21D;53781;51.090;5.884;2022-09-23T00:22:42;12.86;69.94
66873;HTU21D;53781;51.090;5.884;2022-09-23T00:22:57;12.84;69.89
66873;HTU21D;53781;51.090;5.884;2022-09-23T00:23:11;12.84;69.90
66873;HTU21D;53781;51.090;5.884;2022-09-23T00:23:26;12.86;69.86
66873;HTU21D;53781;51.090;5.884;2022-09-23T00:23:42;12.85;69.88
66873;HTU21D;53781;51.090;5.884;2022-09-23T00:23:57;12.87;69.86
66873;HTU21D;53781;51.090;5.884;2022-09-23T00:24:11;12.85;69.84
66873;HTU21D;53781;51.090;5.884;2022-09-23T00:24:26;12.85;69.81
66873;HTU21D;53781;51.090;5.884;2022-09-23T00:24:45;12.85;69.78
66873;HTU21D;53781;51.090;5.884;2022-09-23T00:25:01;12.85;69.80
66873;HTU21D;53781;51.090;5.884;2022-09-23T00:25:16;12.85;69.78
66873;HTU21D;53781;51.090;5.884;2022-09-23T00:25:30;12.84;69.75
66873;HTU21D;53781;51.090;5.884;2022-09-23T00:25:54;12.86;69.74
66873;HTU21D;53781;51.090;5.884;2022-09-23T00:26:12;12.84;69.68
66873;HTU21D;53781;51.090;5.884;2022-09-23T00:26:29;12.85;69.68
66873;HTU21D;53781;51.090;5.884;2022-09-23T00:26:43;12.85;69.64
66873;HTU21D;53781;51.090;5.884;2022-09-23T00:26:59;12.86;69.68
66873;HTU21D;53781;51.090;5.884;2022-09-23T00:27:14;12.84;69.64
66873;HTU21D;53781;51.090;5.884;2022-09-23T00:27:28;12.85;69.60
66873;HTU21D;53781;51.090;5.884;2022-09-23T00:27:44;12.85;69.64
66873;HTU21D;53781;51.090;5.884;2022-09-23T00:27:59;12.85;69.66
66873;HTU21D;53781;51.090;5.884;2022-09-23T00:28:13;12.84;69.67
66873;HTU21D;53781;51.090;5.884;2022-09-23T00:28:29;12.84;69.67
66873;HTU21D;53781;51.090;5.884;2022-09-23T00:28:44;12.84;69.75
66873;HTU21D;53781;51.090;5.884;2022-09-23T00:28:59;12.84;69.74
66873;HTU21D;53781;51.090;5.884;2022-09-23T00:29:14;12.82;69.69
66873;HTU21D;53781;51.090;5.884;2022-09-23T00:29:29;12.84;69.71
66873;HTU21D;53781;51.090;5.884;2022-09-23T00:29:45;12.82;69.65
66873;HTU21D;53781;51.090;5.884;2022-09-23T00:30:01;12.82;69.72
66873;HTU21D;53781;51.090;5.884;2022-09-23T00:30:16;12.80;69.67
66873;HTU21D;53781;51.090;5.884;2022-09-23T00:30:31;12.80;69.73
66873;HTU21D;53781;51.090;5.884;2022-09-23T00:30:46;12.80;69.71
66873;HTU21D;53781;51.090;5.884;2022-09-23T00:31:10;12.79;69.78
66873;HTU21D;53781;51.090;5.884;2022-09-23T00:31:26;12.78;69.74
66873;HTU21D;53781;51.090;5.884;2022-09-23T00:31:41;12.76;69.72
66873;HTU21D;53781;51.090;5.884;2022-09-23T00:31:56;12.76;69.78
66873;HTU21D;53781;51.090;5.884;2022-09-23T00:32:11;12.75;69.78
66873;HTU21D;53781;51.090;5.884;2022-09-23T00:32:26;12.76;69.81
66873;HTU21D;53781;51.090;5.884;2022-09-23T00:32:41;12.75;69.82
66873;HTU21D;53781;51.090;5.884;2022-09-23T00:32:55;12.73;69.78
66873;HTU21D;53781;51.090;5.884;2022-09-23T00:33:10;12.74;69.85
66873;HTU21D;53781;51.090;5.884;2022-09-23T00:33:25;12.72;69.82
66873;HTU21D;53781;51.090;5.884;2022-09-23T00:33:40;12.72;69.85
66873;HTU21D;53781;51.090;5.884;2022-09-23T00:34:00;12.71;69.81
66873;HTU21D;53781;51.090;5.884;2022-09-23T00:34:14;12.69;69.84
66873;HTU21D;53781;51.090;5.884;2022-09-23T00:34:29;12.69;69.87
66873;HTU21D;53781;51.090;5.884;2022-09-23T00:34:44;12.70;69.86
66873;HTU21D;53781;51.090;5.884;2022-09-23T00:34:59;12.67;69.94
66873;HTU21D;53781;51.090;5.884;2022-09-23T00:35:14;12.66;69.92
66873;HTU21D;53781;51.090;5.884;2022-09-23T00:35:28;12.66;69.95
66873;HTU21D;53781;51.090;5.884;2022-09-23T00:35:43;12.64;69.94
66873;HTU21D;53781;51.090;5.884;2022-09-23T00:36:04;12.63;69.95
66873;HTU21D;53781;51.090;5.884;2022-09-23T00:36:18;12.63;69.99
66873;HTU21D;53781;51.090;5.884;2022-09-23T00:36:33;12.63;70.00
66873;HTU21D;53781;51.090;5.884;2022-09-23T00:36:48;12.62;70.07
66873;HTU21D;53781;51.090;5.884;2022-09-23T00:37:03;12.61;70.07
66873;HTU21D;53781;51.090;5.884;2022-09-23T00:37:18;12.61;70.17
66873;HTU21D;53781;51.090;5.884;2022-09-23T00:37:33;12.59;70.16
66873;HTU21D;53781;51.090;5.884;2022-09-23T00:37:48;12.59;70.21
66873;HTU21D;53781;51.090;5.884;2022-09-23T00:38:03;12.58;70.26
66873;HTU21D;53781;51.090;5.884;2022-09-23T00:38:18;12.58;70.25
66873;HTU21D;53781;51.090;5.884;2022-09-23T00:38:32;12.58;70.21
66873;HTU21D;53781;51.090;5.884;2022-09-23T00:38:47;12.57;70.27
66873;HTU21D;53781;51.090;5.884;2022-09-23T00:39:02;12.55;70.28
66873;HTU21D;53781;51.090;5.884;2022-09-23T00:39:17;12.56;70.29
66873;HTU21D;53781;51.090;5.884;2022-09-23T00:39:32;12.52;70.32
66873;HTU21D;53781;51.090;5.884;2022-09-23T00:39:47;12.53;70.33
66873;HTU21D;53781;51.090;5.884;2022-09-23T00:40:02;12.52;70.37
66873;HTU21D;53781;51.090;5.884;2022-09-23T00:40:16;12.51;70.34
66873;HTU21D;53781;51.090;5.884;2022-09-23T00:40:31;12.51;70.42
66873;HTU21D;53781;51.090;5.884;2022-09-23T00:40:46;12.50;70.39
66873;HTU21D;53781;51.090;5.884;2022-09-23T00:41:02;12.49;70.39
66873;HTU21D;53781;51.090;5.884;2022-09-23T00:41:17;12.49;70.45
66873;HTU21D;53781;51.090;5.884;2022-09-23T00:41:32;12.48;70.40
66873;HTU21D;53781;51.090;5.884;2022-09-23T00:41:49;12.48;70.45
66873;HTU21D;53781;51.090;5.884;2022-09-23T00:42:04;12.48;70.47
66873;HTU21D;53781;51.090;5.884;2022-09-23T00:42:21;12.47;70.40
66873;HTU21D;53781;51.090;5.884;2022-09-23T00:42:36;12.47;70.45
66873;HTU21D;53781;51.090;5.884;2022-09-23T00:42:50;12.46;70.46
66873;HTU21D;53781;51.090;5.884;2022-09-23T00:43:07;12.46;70.43
66873;HTU21D;53781;51.090;5.884;2022-09-23T00:43:47;12.45;70.53
66873;HTU21D;53781;51.090;5.884;2022-09-23T00:44:39;12.42;70.58
66873;HTU21D;53781;51.090;5.884;2022-09-23T00:44:59;12.41;70.61
66873;HTU21D;53781;51.090;5.884;2022-09-23T00:45:15;12.38;70.65
66873;HTU21D;53781;51.090;5.884;2022-09-23T00:45:30;12.38;70.68
66873;HTU21D;53781;51.090;5.884;2022-09-23T00:45:49;12.38;70.63
66873;HTU21D;53781;51.090;5.884;2022-09-23T00:46:09;12.37;70.70
66873;HTU21D;53781;51.090;5.884;2022-09-23T00:46:40;12.35;70.77
66873;HTU21D;53781;51.090;5.884;2022-09-23T00:46:57;12.35;70.82
66873;HTU21D;53781;51.090;5.884;2022-09-23T00:47:55;12.35;70.87
66873;HTU21D;53781;51.090;5.884;2022-09-23T00:48:16;12.31;70.88
66873;HTU21D;53781;51.090;5.884;2022-09-23T00:48:31;12.31;70.83
66873;HTU21D;53781;51.090;5.884;2022-09-23T00:48:50;12.30;70.86
66873;HTU21D;53781;51.090;5.884;2022-09-23T00:49:14;12.29;70.84
66873;HTU21D;53781;51.090;5.884;2022-09-23T00:49:31;12.29;70.90
66873;HTU21D;53781;51.090;5.884;2022-09-23T00:49:51;12.29;70.84
66873;HTU21D;53781;51.090;5.884;2022-09-23T00:50:09;12.32;70.85
66873;HTU21D;53781;51.090;5.884;2022-09-23T00:50:53;12.27;70.83
66873;HTU21D;53781;51.090;5.884;2022-09-23T00:51:13;12.27;70.91
66873;HTU21D;53781;51.090;5.884;2022-09-23T00:51:39;12.25;70.86
66873;HTU21D;53781;51.090;5.884;2022-09-23T00:52:09;12.22;70.91
66873;HTU21D;53781;51.090;5.884;2022-09-23T00:52:26;12.21;70.97
66873;HTU21D;53781;51.090;5.884;2022-09-23T00:52:42;12.21;70.97
66873;HTU21D;53781;51.090;5.884;2022-09-23T00:53:03;12.21;70.99
66873;HTU21D;53781;51.090;5.884;2022-09-23T00:53:22;12.20;71.06
66873;HTU21D;53781;51.090;5.884;2022-09-23T00:53:40;12.18;71.10
66873;HTU21D;53781;51.090;5.884;2022-09-23T00:53:55;12.17;71.03
66873;HTU21D;53781;51.090;5.884;2022-09-23T00:54:10;12.16;71.06
66873;HTU21D;53781;51.090;5.884;2022-09-23T00:54:26;12.16;71.10
66873;HTU21D;53781;51.090;5.884;2022-09-23T00:54:45;12.16;71.08
66873;HTU21D;53781;51.090;5.884;2022-09-23T00:55:06;12.15;71.06
66873;HTU21D;53781;51.090;5.884;2022-09-23T00:55:26;12.14;71.13
66873;HTU21D;53781;51.090;5.884;2022-09-23T00:55:54;12.13;71.05
66873;HTU21D;53781;51.090;5.884;2022-09-23T00:56:12;12.14;71.14
66873;HTU21D;53781;51.090;5.884;2022-09-23T00:56:30;12.12;71.14
66873;HTU21D;53781;51.090;5.884;2022-09-23T00:56:46;12.10;71.16
66873;HTU21D;53781;51.090;5.884;2022-09-23T00:57:01;12.11;71.23
66873;HTU21D;53781;51.090;5.884;2022-09-23T00:57:18;12.10;71.24
66873;HTU21D;53781;51.090;5.884;2022-09-23T00:57:35;12.08;71.33
66873;HTU21D;53781;51.090;5.884;2022-09-23T00:57:56;12.08;71.36
66873;HTU21D;53781;51.090;5.884;2022-09-23T00:58:17;12.08;71.35
66873;HTU21D;53781;51.090;5.884;2022-09-23T00:58:37;12.06;71.39
66873;HTU21D;53781;51.090;5.884;2022-09-23T00:58:53;12.06;71.42
66873;HTU21D;53781;51.090;5.884;2022-09-23T00:59:09;12.08;71.36
66873;HTU21D;53781;51.090;5.884;2022-09-23T00:59:25;12.06;71.38
66873;HTU21D;53781;51.090;5.884;2022-09-23T00:59:43;12.05;71.42
66873;HTU21D;53781;51.090;5.884;2022-09-23T00:59:58;12.04;71.46
66873;HTU21D;53781;51.090;5.884;2022-09-23T01:00:13;12.05;71.49
66873;HTU21D;53781;51.090;5.884;2022-09-23T01:00:28;12.03;71.45
66873;HTU21D;53781;51.090;5.884;2022-09-23T01:00:42;12.07;71.46
66873;HTU21D;53781;51.090;5.884;2022-09-23T01:01:01;12.03;71.46
66873;HTU21D;53781;51.090;5.884;2022-09-23T01:01:18;12.03;71.46
66873;HTU21D;53781;51.090;5.884;2022-09-23T01:01:32;12.02;71.50
66873;HTU21D;53781;51.090;5.884;2022-09-23T01:01:51;12.03;71.45
66873;HTU21D;53781;51.090;5.884;2022-09-23T01:02:10;12.02;71.51
66873;HTU21D;53781;51.090;5.884;2022-09-23T01:02:27;12.03;71.46
66873;HTU21D;53781;51.090;5.884;2022-09-23T01:02:42;12.02;71.49
66873;HTU21D;53781;51.090;5.884;2022-09-23T01:02:57;12.01;71.50
66873;HTU21D;53781;51.090;5.884;2022-09-23T01:03:12;12.01;71.46
66873;HTU21D;53781;51.090;5.884;2022-09-23T01:03:28;12.01;71.48
66873;HTU21D;53781;51.090;5.884;2022-09-23T01:03:44;12.02;71.53
66873;HTU21D;53781;51.090;5.884;2022-09-23T01:03:59;12.01;71.49
66873;HTU21D;53781;51.090;5.884;2022-09-23T01:04:14;12.00;71.50
66873;HTU21D;53781;51.090;5.884;2022-09-23T01:04:29;11.99;71.48
66873;HTU21D;53781;51.090;5.884;2022-09-23T01:04:44;11.99;71.54
66873;HTU21D;53781;51.090;5.884;2022-09-23T01:05:02;11.99;71.47
66873;HTU21D;53781;51.090;5.884;2022-09-23T01:05:18;11.99;71.52
66873;HTU21D;53781;51.090;5.884;2022-09-23T01:05:33;11.98;71.50
66873;HTU21D;53781;51.090;5.884;2022-09-23T01:05:48;11.98;71.51
66873;HTU21D;53781;51.090;5.884;2022-09-23T01:06:04;11.98;71.51
66873;HTU21D;53781;51.090;5.884;2022-09-23T01:06:19;11.97;71.53
66873;HTU21D;53781;51.090;5.884;2022-09-23T01:06:34;11.96;71.57
66873;HTU21D;53781;51.090;5.884;2022-09-23T01:06:49;11.96;71.51
66873;HTU21D;53781;51.090;5.884;2022-09-23T01:07:04;11.97;71.54
66873;HTU21D;53781;51.090;5.884;2022-09-23T01:07:19;11.96;71.61
66873;HTU21D;53781;51.090;5.884;2022-09-23T01:07:35;11.97;71.61
66873;HTU21D;53781;51.090;5.884;2022-09-23T01:07:50;11.94;71.55
66873;HTU21D;53781;51.090;5.884;2022-09-23T01:08:09;11.94;71.59
66873;HTU21D;53781;51.090;5.884;2022-09-23T01:08:26;11.94;71.55
66873;HTU21D;53781;51.090;5.884;2022-09-23T01:08:44;11.94;71.61
66873;HTU21D;53781;51.090;5.884;2022-09-23T01:09:00;11.96;71.61
66873;HTU21D;53781;51.090;5.884;2022-09-23T01:09:16;11.93;71.55
66873;HTU21D;53781;51.090;5.884;2022-09-23T01:09:31;11.93;71.55
66873;HTU21D;53781;51.090;5.884;2022-09-23T01:09:47;11.92;71.55
66873;HTU21D;53781;51.090;5.884;2022-09-23T01:10:04;11.94;71.55
66873;HTU21D;53781;51.090;5.884;2022-09-23T01:10:19;11.94;71.61
66873;HTU21D;53781;51.090;5.884;2022-09-23T01:10:51;11.94;71.62
66873;HTU21D;53781;51.090;5.884;2022-09-23T01:11:56;11.92;71.59
66873;HTU21D;53781;51.090;5.884;2022-09-23T01:12:36;11.91;71.56
66873;HTU21D;53781;51.090;5.884;2022-09-23T01:13:17;11.89;71.61
66873;HTU21D;53781;51.090;5.884;2022-09-23T01:14:20;11.89;71.60
66873;HTU21D;53781;51.090;5.884;2022-09-23T01:15:48;11.86;71.58
66873;HTU21D;53781;51.090;5.884;2022-09-23T01:16:07;11.86;71.61
66873;HTU21D;53781;51.090;5.884;2022-09-23T01:16:48;11.85;71.62
66873;HTU21D;53781;51.090;5.884;2022-09-23T01:17:55;11.85;71.66
66873;HTU21D;53781;51.090;5.884;2022-09-23T01:18:33;11.83;71.67
66873;HTU21D;53781;51.090;5.884;2022-09-23T01:20:47;11.83;71.71
66873;HTU21D;53781;51.090;5.884;2022-09-23T01:22:07;11.83;71.73
66873;HTU21D;53781;51.090;5.884;2022-09-23T01:24:22;11.82;71.68
66873;HTU21D;53781;51.090;5.884;2022-09-23T01:25:26;11.78;71.70
66873;HTU21D;53781;51.090;5.884;2022-09-23T01:27:26;11.76;71.74
66873;HTU21D;53781;51.090;5.884;2022-09-23T01:28:35;11.74;71.74
66873;HTU21D;53781;51.090;5.884;2022-09-23T01:29:27;11.74;71.71
66873;HTU21D;53781;51.090;5.884;2022-09-23T01:30:44;11.71;71.74
66873;HTU21D;53781;51.090;5.884;2022-09-23T01:31:24;11.73;71.81
66873;HTU21D;53781;51.090;5.884;2022-09-23T01:33:01;11.72;71.85
66873;HTU21D;53781;51.090;5.884;2022-09-23T01:33:55;11.70;71.88
66873;HTU21D;53781;51.090;5.884;2022-09-23T01:34:34;11.69;71.83
66873;HTU21D;53781;51.090;5.884;2022-09-23T01:36:07;11.69;71.90
66873;HTU21D;53781;51.090;5.884;2022-09-23T01:36:34;11.68;71.80
66873;HTU21D;53781;51.090;5.884;2022-09-23T01:37:10;11.67;71.77
66873;HTU21D;53781;51.090;5.884;2022-09-23T01:37:39;11.66;71.83
66873;HTU21D;53781;51.090;5.884;2022-09-23T01:40:05;11.60;71.78
66873;HTU21D;53781;51.090;5.884;2022-09-23T01:42:00;11.57;71.81
66873;HTU21D;53781;51.090;5.884;2022-09-23T01:42:16;11.58;71.86
66873;HTU21D;53781;51.090;5.884;2022-09-23T01:43:05;11.57;71.94
66873;HTU21D;53781;51.090;5.884;2022-09-23T01:45:46;11.54;72.13
66873;HTU21D;53781;51.090;5.884;2022-09-23T01:46:09;11.54;72.15
66873;HTU21D;53781;51.090;5.884;2022-09-23T01:46:40;11.53;72.19
66873;HTU21D;53781;51.090;5.884;2022-09-23T01:47:34;11.53;72.13
66873;HTU21D;53781;51.090;5.884;2022-09-23T01:48:00;11.53;72.13
66873;HTU21D;53781;51.090;5.884;2022-09-23T01:48:26;11.52;72.13
66873;HTU21D;53781;51.090;5.884;2022-09-23T01:49:21;11.54;72.22
66873;HTU21D;53781;51.090;5.884;2022-09-23T01:49:41;11.53;72.13
66873;HTU21D;53781;51.090;5.884;2022-09-23T01:50:13;11.53;72.17
66873;HTU21D;53781;51.090;5.884;2022-09-23T01:51:02;11.52;72.09
66873;HTU21D;53781;51.090;5.884;2022-09-23T01:51:29;11.51;72.07
66873;HTU21D;53781;51.090;5.884;2022-09-23T01:52:03;11.51;72.03
66873;HTU21D;53781;51.090;5.884;2022-09-23T01:52:39;11.49;72.01
66873;HTU21D;53781;51.090;5.884;2022-09-23T01:53:01;11.48;72.03
66873;HTU21D;53781;51.090;5.884;2022-09-23T01:53:31;11.46;72.03
66873;HTU21D;53781;51.090;5.884;2022-09-23T01:54:07;11.47;72.00
66873;HTU21D;53781;51.090;5.884;2022-09-23T01:54:35;11.45;72.01
66873;HTU21D;53781;51.090;5.884;2022-09-23T01:55:26;11.45;72.06
66873;HTU21D;53781;51.090;5.884;2022-09-23T01:55:48;11.44;72.09
66873;HTU21D;53781;51.090;5.884;2022-09-23T01:56:13;11.44;72.14
66873;HTU21D;53781;51.090;5.884;2022-09-23T01:56:39;11.45;72.13
66873;HTU21D;53781;51.090;5.884;2022-09-23T01:57:17;11.43;72.09
66873;HTU21D;53781;51.090;5.884;2022-09-23T01:57:41;11.42;72.06
66873;HTU21D;53781;51.090;5.884;2022-09-23T01:58:07;11.43;72.06
66873;HTU21D;53781;51.090;5.884;2022-09-23T01:58:36;11.41;72.11
66873;HTU21D;53781;51.090;5.884;2022-09-23T02:00:33;11.40;72.24
66873;HTU21D;53781;51.090;5.884;2022-09-23T02:00:50;11.41;72.20
66873;HTU21D;53781;51.090;5.884;2022-09-23T02:01:07;11.40;72.23
66873;HTU21D;53781;51.090;5.884;2022-09-23T02:01:31;11.41;72.14
66873;HTU21D;53781;51.090;5.884;2022-09-23T02:02:08;11.41;72.14
66873;HTU21D;53781;51.090;5.884;2022-09-23T02:02:28;11.40;72.13
66873;HTU21D;53781;51.090;5.884;2022-09-23T02:02:54;11.40;72.13
66873;HTU21D;53781;51.090;5.884;2022-09-23T02:03:40;11.40;72.16
66873;HTU21D;53781;51.090;5.884;2022-09-23T02:04:02;11.39;72.16
66873;HTU21D;53781;51.090;5.884;2022-09-23T02:04:52;11.42;72.22
66873;HTU21D;53781;51.090;5.884;2022-09-23T02:05:49;11.40;72.16
66873;HTU21D;53781;51.090;5.884;2022-09-23T02:06:12;11.40;72.20
66873;HTU21D;53781;51.090;5.884;2022-09-23T02:06:50;11.40;72.08
66873;HTU21D;53781;51.090;5.884;2022-09-23T02:07:14;11.40;72.10
66873;HTU21D;53781;51.090;5.884;2022-09-23T02:07:59;11.40;72.09
66873;HTU21D;53781;51.090;5.884;2022-09-23T02:08:25;11.39;72.09
66873;HTU21D;53781;51.090;5.884;2022-09-23T02:08:57;11.39;72.12
66873;HTU21D;53781;51.090;5.884;2022-09-23T02:09:20;11.41;72.10
66873;HTU21D;53781;51.090;5.884;2022-09-23T02:09:42;11.39;72.16
66873;HTU21D;53781;51.090;5.884;2022-09-23T02:10:10;11.39;72.16
66873;HTU21D;53781;51.090;5.884;2022-09-23T02:10:27;11.40;72.14
66873;HTU21D;53781;51.090;5.884;2022-09-23T02:10:51;11.41;72.13
66873;HTU21D;53781;51.090;5.884;2022-09-23T02:11:10;11.38;72.10
66873;HTU21D;53781;51.090;5.884;2022-09-23T02:11:32;11.38;72.06
66873;HTU21D;53781;51.090;5.884;2022-09-23T02:11:53;11.40;72.04
66873;HTU21D;53781;51.090;5.884;2022-09-23T02:12:16;11.38;72.03
66873;HTU21D;53781;51.090;5.884;2022-09-23T02:12:38;11.37;72.03
66873;HTU21D;53781;51.090;5.884;2022-09-23T02:13:01;11.36;72.00
66873;HTU21D;53781;51.090;5.884;2022-09-23T02:13:25;11.36;72.09
66873;HTU21D;53781;51.090;5.884;2022-09-23T02:14:00;11.36;72.11
66873;HTU21D;53781;51.090;5.884;2022-09-23T02:14:45;11.37;72.15
66873;HTU21D;53781;51.090;5.884;2022-09-23T02:15:06;11.33;72.00
66873;HTU21D;53781;51.090;5.884;2022-09-23T02:15:25;11.34;72.04
66873;HTU21D;53781;51.090;5.884;2022-09-23T02:15:48;11.33;71.99
66873;HTU21D;53781;51.090;5.884;2022-09-23T02:16:24;11.33;71.93
66873;HTU21D;53781;51.090;5.884;2022-09-23T02:16:50;11.31;71.98
66873;HTU21D;53781;51.090;5.884;2022-09-23T02:17:09;11.29;71.99
66873;HTU21D;53781;51.090;5.884;2022-09-23T02:17:41;11.29;72.03
66873;HTU21D;53781;51.090;5.884;2022-09-23T02:18:13;11.29;72.01
66873;HTU21D;53781;51.090;5.884;2022-09-23T02:18:59;11.26;72.04
66873;HTU21D;53781;51.090;5.884;2022-09-23T02:19:28;11.26;72.04
66873;HTU21D;53781;51.090;5.884;2022-09-23T02:19:53;11.26;71.99
66873;HTU21D;53781;51.090;5.884;2022-09-23T02:20:12;11.25;71.98
66873;HTU21D;53781;51.090;5.884;2022-09-23T02:20:33;11.26;71.99
66873;HTU21D;53781;51.090;5.884;2022-09-23T02:20:58;11.25;72.06
66873;HTU21D;53781;51.090;5.884;2022-09-23T02:21:17;11.24;72.03
66873;HTU21D;53781;51.090;5.884;2022-09-23T02:21:39;11.24;72.05
66873;HTU21D;53781;51.090;5.884;2022-09-23T02:22:28;11.24;72.03
66873;HTU21D;53781;51.090;5.884;2022-09-23T02:23:07;11.22;72.02
66873;HTU21D;53781;51.090;5.884;2022-09-23T02:23:35;11.18;72.09
66873;HTU21D;53781;51.090;5.884;2022-09-23T02:24:09;11.20;72.13
66873;HTU21D;53781;51.090;5.884;2022-09-23T02:24:30;11.20;72.16
66873;HTU21D;53781;51.090;5.884;2022-09-23T02:24:45;11.18;72.15
66873;HTU21D;53781;51.090;5.884;2022-09-23T02:25:01;11.17;72.16
66873;HTU21D;53781;51.090;5.884;2022-09-23T02:25:22;11.17;72.24
66873;HTU21D;53781;51.090;5.884;2022-09-23T02:26:39;11.17;72.24
66873;HTU21D;53781;51.090;5.884;2022-09-23T02:27:49;11.16;72.40
66873;HTU21D;53781;51.090;5.884;2022-09-23T02:28:24;11.16;72.48
66873;HTU21D;53781;51.090;5.884;2022-09-23T02:29:18;11.17;72.45
66873;HTU21D;53781;51.090;5.884;2022-09-23T02:30:10;11.18;72.41
66873;HTU21D;53781;51.090;5.884;2022-09-23T02:30:33;11.17;72.42
66873;HTU21D;53781;51.090;5.884;2022-09-23T02:31:06;11.15;72.44
66873;HTU21D;53781;51.090;5.884;2022-09-23T02:31:59;11.15;72.49
66873;HTU21D;53781;51.090;5.884;2022-09-23T02:34:16;11.17;72.56
66873;HTU21D;53781;51.090;5.884;2022-09-23T02:35:54;11.17;72.54
66873;HTU21D;53781;51.090;5.884;2022-09-23T02:36:28;11.17;72.43